Time;durP1;ratioP1;P1;durP2;ratioP2;P2;SDS_P1;SDS_P2;PMS_P1;PMS_P2;Temp;Humidity;BMP_temperature;BMP_pressure;BME280_temperature;BME280_humidity;BME280_pressure;Samples;Min_cycle;Max_cycle;Signal;HPM_P1;HPM_P2
2022/04/19 00:01:36;;;;;;;8.43;2.03;;;;;;;;;;5089281;28;20048;-74
2022/04/19 00:04:06;;;;;;;11.02;1.85;;;;;;;;;;5088403;28;20426;-74
2022/04/19 00:06:36;;;;;;;8.93;1.77;;;;;;;;;;5089263;28;20055;-73
2022/04/19 00:09:06;;;;;;;11.43;1.98;;;;;;;;;;5071148;28;20067;-74
2022/04/19 00:11:36;;;;;;;18.30;2.95;;;;;;;;;;5088757;28;20052;-74
2022/04/19 00:14:07;;;;;;;8.43;1.70;;;;;;;;;;5089742;28;20056;-73
2022/04/19 00:16:38;;;;;;;7.75;2.22;;;;;;;;;;5089516;28;20048;-74
2022/04/19 00:19:09;;;;;;;16.58;2.67;;;;;;;;;;5089056;28;20052;-75
2022/04/19 00:21:38;;;;;;;9.82;1.58;;;;;;;;;;5089126;28;20050;-77
2022/04/19 00:24:08;;;;;;;10.25;1.70;;;;;;;;;;5088563;28;20122;-74
2022/04/19 00:26:38;;;;;;;10.35;1.75;;;;;;;;;;5088150;28;20048;-74
2022/04/19 00:29:08;;;;;;;11.32;2.83;;;;;;;;;;5070521;28;20052;-74
2022/04/19 00:31:38;;;;;;;9.77;2.23;;;;;;;;;;5088506;28;20051;-75
2022/04/19 00:34:08;;;;;;;9.23;2.25;;;;;;;;;;5070514;28;20537;-74
2022/04/19 00:36:38;;;;;;;14.85;2.22;;;;;;;;;;5088874;28;20048;-74
2022/04/19 00:39:08;;;;;;;8.35;2.08;;;;;;;;;;5069948;28;20055;-74
2022/04/19 00:41:38;;;;;;;9.45;2.08;;;;;;;;;;5069927;28;20478;-74
2022/04/19 00:44:08;;;;;;;7.78;1.58;;;;;;;;;;5088066;28;20067;-74
2022/04/19 00:46:38;;;;;;;7.00;1.65;;;;;;;;;;5053399;28;20044;-74
2022/04/19 00:49:08;;;;;;;14.57;2.33;;;;;;;;;;5087526;28;20522;-74
2022/04/19 00:51:38;;;;;;;10.95;1.90;;;;;;;;;;5069295;28;20048;-74
2022/04/19 00:54:08;;;;;;;9.27;2.28;;;;;;;;;;5086698;28;20537;-73
2022/04/19 00:56:40;;;;;;;9.85;1.80;;;;;;;;;;5069840;28;20044;-73
2022/04/19 00:59:11;;;;;;;9.70;2.05;;;;;;;;;;5052793;28;20503;-73
2022/04/19 01:01:42;;;;;;;10.05;2.50;;;;;;;;;;5068831;28;20056;-74
2022/04/19 01:04:13;;;;;;;11.57;2.22;;;;;;;;;;5069526;28;20432;-73
2022/04/19 01:06:42;;;;;;;13.60;2.10;;;;;;;;;;5084987;28;20075;-74
2022/04/19 01:09:14;;;;;;;7.03;1.58;;;;;;;;;;5069523;28;20063;-73
2022/04/19 01:14:36;;;;;;;6.80;1.40;;;;;;;;;;5086547;28;20515;-73
2022/04/19 01:17:09;;;;;;;6.53;1.65;;;;;;;;;;5068564;28;20040;-74
2022/04/19 01:19:43;;;;;;;10.38;2.10;;;;;;;;;;5069573;28;20507;-73
2022/04/19 01:22:17;;;;;;;6.88;1.60;;;;;;;;;;5069037;28;20055;-73
2022/04/19 01:24:49;;;;;;;10.20;2.17;;;;;;;;;;5067762;28;20063;-74
2022/04/19 01:27:19;;;;;;;13.18;2.28;;;;;;;;;;5087953;28;20043;-74
2022/04/19 01:29:51;;;;;;;11.10;2.65;;;;;;;;;;5069344;28;20062;-74
2022/04/19 01:32:24;;;;;;;8.65;1.40;;;;;;;;;;5068789;28;20562;-73
2022/04/19 01:35:17;;;;;;;6.30;1.38;;;;;;;;;;5068738;28;20391;-74
2022/04/19 01:37:58;;;;;;;7.03;2.10;;;;;;;;;;5069109;28;20063;-74
2022/04/19 01:40:33;;;;;;;18.23;2.65;;;;;;;;;;5087457;28;20118;-73
2022/04/19 01:43:05;;;;;;;9.18;1.92;;;;;;;;;;5069343;28;20616;-74
2022/04/19 01:45:44;;;;;;;12.23;2.40;;;;;;;;;;5069202;28;20071;-73
2022/04/19 01:48:20;;;;;;;10.48;1.60;;;;;;;;;;5068825;28;20051;-73
2022/04/19 01:50:50;;;;;;;10.02;2.03;;;;;;;;;;5086009;28;20396;-74
2022/04/19 01:53:20;;;;;;;8.32;2.10;;;;;;;;;;5068058;28;20059;-74
2022/04/19 01:55:52;;;;;;;10.18;1.55;;;;;;;;;;5068057;28;20059;-74
2022/04/19 01:58:43;;;;;;;5.55;1.52;;;;;;;;;;5089160;28;20775;-73
2022/04/19 02:01:16;;;;;;;8.70;1.95;;;;;;;;;;5069077;28;20048;-73
2022/04/19 02:03:47;;;;;;;9.30;1.73;;;;;;;;;;5069073;28;20545;-73
2022/04/19 02:06:21;;;;;;;8.85;1.90;;;;;;;;;;5067690;28;20047;-73
2022/04/19 02:08:51;;;;;;;5.32;1.73;;;;;;;;;;5068065;28;20119;-73
2022/04/19 02:11:24;;;;;;;7.43;1.92;;;;;;;;;;5067451;28;20063;-74
2022/04/19 02:14:16;;;;;;;4.57;1.63;;;;;;;;;;5067854;28;20063;-74
2022/04/19 02:16:46;;;;;;;13.73;1.98;;;;;;;;;;5086412;28;20426;-74
2022/04/19 02:19:17;;;;;;;7.20;1.63;;;;;;;;;;5068220;28;20059;-73
2022/04/19 02:21:51;;;;;;;8.73;2.17;;;;;;;;;;5068218;28;20052;-73
2022/04/19 02:24:21;;;;;;;6.00;1.33;;;;;;;;;;5068522;28;20808;-73
2022/04/19 02:26:54;;;;;;;9.65;1.73;;;;;;;;;;5068084;28;20067;-73
2022/04/19 02:29:25;;;;;;;15.88;2.42;;;;;;;;;;5068040;28;20048;-73
2022/04/19 02:31:56;;;;;;;9.43;2.03;;;;;;;;;;5067647;28;20056;-73
2022/04/19 02:34:28;;;;;;;17.77;2.33;;;;;;;;;;5068047;28;20078;-73
2022/04/19 02:36:58;;;;;;;9.15;1.98;;;;;;;;;;5067835;28;20059;-73
2022/04/19 02:39:30;;;;;;;10.82;1.95;;;;;;;;;;5050569;28;20055;-74
2022/04/19 02:42:00;;;;;;;6.55;1.83;;;;;;;;;;5068561;28;20530;-73
2022/04/19 02:44:30;;;;;;;7.78;1.85;;;;;;;;;;5067560;28;20050;-76
2022/04/19 02:47:05;;;;;;;8.52;1.65;;;;;;;;;;5068132;28;20511;-73
2022/04/19 02:49:37;;;;;;;7.43;1.80;;;;;;;;;;5068113;28;20048;-73
2022/04/19 02:52:10;;;;;;;9.70;2.30;;;;;;;;;;5068062;28;20056;-73
2022/04/19 02:54:41;;;;;;;11.20;2.25;;;;;;;;;;5084681;28;20052;-73
2022/04/19 02:57:12;;;;;;;6.72;1.90;;;;;;;;;;5067475;28;20446;-73
2022/04/19 02:59:45;;;;;;;9.07;1.58;;;;;;;;;;5086739;28;20055;-73
2022/04/19 03:02:16;;;;;;;9.50;1.60;;;;;;;;;;5085852;28;20067;-74
2022/04/19 03:04:46;;;;;;;12.40;2.20;;;;;;;;;;5068103;28;20044;-73
2022/04/19 03:07:16;;;;;;;14.70;2.30;;;;;;;;;;5067775;28;20059;-73
2022/04/19 03:09:46;;;;;;;11.07;1.92;;;;;;;;;;5067716;28;20063;-73
2022/04/19 03:12:16;;;;;;;8.75;1.70;;;;;;;;;;5067387;28;20538;-74
2022/04/19 03:15:00;;;;;;;9.32;2.05;;;;;;;;;;5067445;28;20056;-73
2022/04/19 03:17:31;;;;;;;12.35;1.92;;;;;;;;;;5067499;28;20056;-73
2022/04/19 03:20:01;;;;;;;10.57;1.70;;;;;;;;;;5067857;28;20051;-73
2022/04/19 03:27:41;;;;;;;6.20;1.92;;;;;;;;;;5070957;28;20419;-74
2022/04/19 03:28:10;;;;;;;7.55;1.70;;;;;;;;;;5071557;28;20094;-73
2022/04/19 03:30:43;;;;;;;9.40;1.60;;;;;;;;;;5055304;28;20071;-73
2022/04/19 03:33:16;;;;;;;6.75;1.90;;;;;;;;;;5071160;28;20060;-73
2022/04/19 03:35:46;;;;;;;5.75;1.85;;;;;;;;;;5071649;28;20063;-73
2022/04/19 03:38:16;;;;;;;10.57;1.80;;;;;;;;;;5089896;28;20044;-73
2022/04/19 03:40:47;;;;;;;10.23;1.90;;;;;;;;;;5071255;28;20048;-73
2022/04/19 03:43:18;;;;;;;6.53;1.83;;;;;;;;;;5071385;28;20533;-73
2022/04/19 03:45:49;;;;;;;8.05;1.45;;;;;;;;;;5070559;28;20063;-73
2022/04/19 03:48:19;;;;;;;12.20;2.00;;;;;;;;;;5070763;28;20490;-73
2022/04/19 03:50:52;;;;;;;6.40;1.63;;;;;;;;;;5070751;28;20047;-74
2022/04/19 03:53:22;;;;;;;10.10;1.85;;;;;;;;;;5089665;28;20040;-73
2022/04/19 03:55:52;;;;;;;8.63;1.92;;;;;;;;;;5071350;28;20073;-73
2022/04/19 03:58:22;;;;;;;7.28;1.55;;;;;;;;;;5070631;28;20060;-73
2022/04/19 04:00:53;;;;;;;10.07;1.52;;;;;;;;;;5070499;28;20130;-73
2022/04/19 04:03:23;;;;;;;;;;;;;;;;;;5071209;28;20063;-73
2022/04/19 04:05:53;;;;;;;7.88;1.48;;;;;;;;;;5070800;28;19924;-73
2022/04/19 04:08:23;;;;;;;13.68;1.90;;;;;;;;;;5089232;28;20043;-73
2022/04/19 04:10:53;;;;;;;8.90;1.70;;;;;;;;;;5071361;28;20051;-73
2022/04/19 04:13:28;;;;;;;4.35;1.38;;;;;;;;;;5069599;28;20051;-73
2022/04/19 04:15:58;;;;;;;4.70;1.40;;;;;;;;;;5070725;28;20055;-73
2022/04/19 04:18:32;;;;;;;8.60;1.90;;;;;;;;;;5070789;28;20066;-73
2022/04/19 04:21:03;;;;;;;3.42;1.20;;;;;;;;;;5070083;28;20052;-73
2022/04/19 04:23:33;;;;;;;10.40;1.92;;;;;;;;;;5070153;28;20052;-73
2022/04/19 04:26:10;;;;;;;8.95;2.10;;;;;;;;;;5070554;28;20422;-73
2022/04/19 04:28:41;;;;;;;9.48;1.52;;;;;;;;;;5069662;28;20535;-73
2022/04/19 04:31:11;;;;;;;5.60;1.52;;;;;;;;;;5070251;28;20541;-73
2022/04/19 04:33:41;;;;;;;10.98;1.35;;;;;;;;;;5068778;28;20051;-73
2022/04/19 04:36:11;;;;;;;5.18;1.08;;;;;;;;;;5069892;28;20056;-73
2022/04/19 04:38:41;;;;;;;5.47;1.60;;;;;;;;;;5070285;28;20137;-73
2022/04/19 04:41:21;;;;;;;9.75;1.60;;;;;;;;;;5069955;28;20060;-73
2022/04/19 04:43:51;;;;;;;7.45;1.70;;;;;;;;;;5070355;28;20055;-73
2022/04/19 04:51:59;;;;;;;8.00;1.60;;;;;;;;;;5069394;28;20052;-73
2022/04/19 04:54:30;;;;;;;8.32;1.60;;;;;;;;;;5087819;28;20052;-73
2022/04/19 04:57:00;;;;;;;6.55;1.50;;;;;;;;;;5069242;28;20404;-72
2022/04/19 04:59:32;;;;;;;7.80;1.35;;;;;;;;;;5069234;28;20059;-73
2022/04/19 05:02:04;;;;;;;6.75;1.70;;;;;;;;;;5070665;28;20052;-73
2022/04/19 05:04:35;;;;;;;6.72;1.23;;;;;;;;;;5069196;28;20067;-73
2022/04/19 05:07:06;;;;;;;5.07;1.83;;;;;;;;;;5069237;28;20052;-73
2022/04/19 05:09:45;;;;;;;10.90;1.88;;;;;;;;;;5069483;28;20056;-74
2022/04/19 05:12:15;;;;;;;9.23;1.63;;;;;;;;;;5070006;28;20067;-73
2022/04/19 05:14:45;;;;;;;8.77;1.50;;;;;;;;;;5068801;28;20064;-72
2022/04/19 05:17:15;;;;;;;10.75;1.40;;;;;;;;;;5069458;28;20055;-73
2022/04/19 05:19:45;;;;;;;7.97;1.83;;;;;;;;;;5087385;28;20426;-73
2022/04/19 05:22:15;;;;;;;7.57;1.30;;;;;;;;;;5085850;28;20078;-72
2022/04/19 05:24:47;;;;;;;6.80;1.92;;;;;;;;;;5070040;28;20044;-73
2022/04/19 05:27:17;;;;;;;12.00;1.50;;;;;;;;;;5068995;28;20423;-73
2022/04/19 05:29:49;;;;;;;9.88;1.38;;;;;;;;;;5068621;28;20298;-73
2022/04/19 05:32:20;;;;;;;10.15;2.05;;;;;;;;;;5068768;28;20052;-73
2022/04/19 05:34:50;;;;;;;5.03;1.88;;;;;;;;;;5068551;28;20058;-72
2022/04/19 05:37:20;;;;;;;6.88;1.35;;;;;;;;;;5068743;28;20048;-73
2022/04/19 05:39:50;;;;;;;4.97;1.35;;;;;;;;;;5086905;28;20634;-73
2022/04/19 05:42:20;;;;;;;3.28;1.02;;;;;;;;;;5068697;28;20075;-73
2022/04/19 05:44:51;;;;;;;11.65;1.40;;;;;;;;;;5068984;28;20048;-72
2022/04/19 05:47:21;;;;;;;5.13;1.25;;;;;;;;;;5066838;28;20395;-72
2022/04/19 05:49:51;;;;;;;6.18;1.45;;;;;;;;;;5067827;28;20040;-73
2022/04/19 05:52:21;;;;;;;8.63;1.50;;;;;;;;;;5066019;28;20071;-73
2022/04/19 05:54:51;;;;;;;12.30;1.70;;;;;;;;;;5065737;28;20427;-73
2022/04/19 05:57:21;;;;;;;4.30;1.10;;;;;;;;;;5066292;28;20056;-73
2022/04/19 05:59:51;;;;;;;7.05;1.45;;;;;;;;;;5066904;28;20055;-73
2022/04/19 06:05:11;;;;;;;5.07;1.15;;;;;;;;;;5068099;28;20514;-73
2022/04/19 06:07:48;;;;;;;5.28;1.15;;;;;;;;;;5067949;28;20066;-73
2022/04/19 06:10:19;;;;;;;3.47;1.13;;;;;;;;;;5069156;28;20058;-73
2022/04/19 06:12:52;;;;;;;8.23;1.55;;;;;;;;;;5068353;28;20055;-72
2022/04/19 06:15:22;;;;;;;4.90;1.30;;;;;;;;;;5069083;28;20054;-73
2022/04/19 06:17:52;;;;;;;7.07;1.77;;;;;;;;;;5067938;28;20066;-73
2022/04/19 06:20:42;;;;;;;8.13;1.50;;;;;;;;;;5074911;28;20067;-73
2022/04/19 06:23:12;;;;;;;8.00;1.88;;;;;;;;;;5068555;28;20059;-73
2022/04/19 06:25:44;;;;;;;7.35;1.02;;;;;;;;;;5086112;28;20051;-73
2022/04/19 06:28:17;;;;;;;7.63;1.55;;;;;;;;;;5067926;28;20067;-73
2022/04/19 06:31:13;;;;;;;4.88;1.33;;;;;;;;;;5062621;28;20052;-73
2022/04/19 06:33:48;;;;;;;6.70;1.42;;;;;;;;;;5068230;28;20044;-73
2022/04/19 06:36:21;;;;;;;5.95;1.40;;;;;;;;;;5068010;28;20415;-73
2022/04/19 06:38:51;;;;;;;9.55;1.20;;;;;;;;;;5068306;28;20496;-73
2022/04/19 06:41:21;;;;;;;6.63;1.40;;;;;;;;;;5067334;28;20051;-73
2022/04/19 06:43:51;;;;;;;5.38;1.55;;;;;;;;;;5067439;28;20086;-73
2022/04/19 06:46:21;;;;;;;6.13;1.13;;;;;;;;;;5066546;28;20058;-73
2022/04/19 06:49:05;;;;;;;9.77;1.25;;;;;;;;;;5067610;28;20812;-73
2022/04/19 06:51:35;;;;;;;5.85;1.40;;;;;;;;;;5067669;28;20047;-73
2022/04/19 06:54:12;;;;;;;7.43;1.45;;;;;;;;;;5066947;28;20052;-74
2022/04/19 06:56:45;;;;;;;4.53;1.20;;;;;;;;;;5085723;28;20503;-73
2022/04/19 06:59:15;;;;;;;5.03;1.40;;;;;;;;;;5067639;28;20056;-73
2022/04/19 07:01:45;;;;;;;4.68;1.30;;;;;;;;;;5066333;28;20048;-73
2022/04/19 07:04:33;;;;;;;5.80;1.50;;;;;;;;;;5092013;28;20049;-73
2022/04/19 07:07:08;;;;;;;5.05;1.05;;;;;;;;;;5067400;28;20063;-73
2022/04/19 07:09:41;;;;;;;5.03;1.20;;;;;;;;;;5066660;28;20098;-73
2022/04/19 07:12:13;;;;;;;5.00;1.67;;;;;;;;;;5067277;28;20056;-73
2022/04/19 07:15:19;;;;;;;8.10;1.48;;;;;;;;;;5023033;28;20045;-73
2022/04/19 07:17:55;;;;;;;4.65;1.30;;;;;;;;;;5077061;28;20055;-73
2022/04/19 07:28:50;;;;;;;3.45;1.10;;;;;;;;;;5067185;28;20048;-73
2022/04/19 07:31:20;;;;;;;4.70;1.30;;;;;;;;;;5084650;28;20055;-73
2022/04/19 07:33:50;;;;;;;7.50;1.10;;;;;;;;;;5067109;28;20048;-73
2022/04/19 07:36:20;;;;;;;8.15;1.30;;;;;;;;;;5066868;28;20059;-73
2022/04/19 07:38:51;;;;;;;3.90;1.40;;;;;;;;;;5067036;28;20134;-73
2022/04/19 07:41:26;;;;;;;9.52;1.80;;;;;;;;;;5086221;28;20040;-73
2022/04/19 07:43:55;;;;;;;;;;;;;;;;;;5067513;28;20078;-73
2022/04/19 07:46:25;;;;;;;3.63;1.13;;;;;;;;;;5085574;28;19952;-72
2022/04/19 07:48:56;;;;;;;5.03;1.33;;;;;;;;;;5067380;28;20052;-73
2022/04/19 07:51:26;;;;;;;4.22;1.52;;;;;;;;;;5066839;28;20063;-73
2022/04/19 07:53:56;;;;;;;6.18;1.30;;;;;;;;;;5066497;28;20395;-73
2022/04/19 07:56:27;;;;;;;8.23;1.40;;;;;;;;;;5066423;28;20060;-72
2022/04/19 07:58:59;;;;;;;9.50;1.73;;;;;;;;;;5066968;28;20526;-72
2022/04/19 08:01:34;;;;;;;8.40;1.65;;;;;;;;;;5085703;28;20636;-74
2022/04/19 08:04:05;;;;;;;8.98;1.65;;;;;;;;;;5086237;28;20056;-73
2022/04/19 08:06:34;;;;;;;4.63;1.10;;;;;;;;;;5085281;28;20067;-73
2022/04/19 08:09:05;;;;;;;6.03;1.30;;;;;;;;;;5069225;28;20052;-74
2022/04/19 08:11:35;;;;;;;8.57;1.25;;;;;;;;;;5070720;28;20060;-73
2022/04/19 08:14:05;;;;;;;8.77;1.65;;;;;;;;;;5070570;28;20052;-72
2022/04/19 08:16:34;;;;;;;3.65;1.40;;;;;;;;;;5070883;28;20060;-73
2022/04/19 08:19:04;;;;;;;6.22;1.15;;;;;;;;;;5070707;28;20396;-73
2022/04/19 08:21:35;;;;;;;10.05;2.08;;;;;;;;;;5089143;28;20051;-72
2022/04/19 08:24:06;;;;;;;5.88;1.30;;;;;;;;;;5071205;28;20503;-73
2022/04/19 08:26:36;;;;;;;4.75;1.35;;;;;;;;;;5054146;28;20495;-72
2022/04/19 08:29:07;;;;;;;8.82;1.17;;;;;;;;;;5070358;28;20515;-72
2022/04/19 08:31:38;;;;;;;4.38;1.40;;;;;;;;;;5070172;28;20059;-73
2022/04/19 08:34:08;;;;;;;10.32;1.70;;;;;;;;;;5070816;28;20055;-72
2022/04/19 08:36:43;;;;;;;7.97;1.35;;;;;;;;;;5070299;28;20067;-73
2022/04/19 08:39:13;;;;;;;13.35;1.75;;;;;;;;;;5069356;28;20055;-72
2022/04/19 08:41:44;;;;;;;8.48;1.65;;;;;;;;;;5070517;28;20048;-73
2022/04/19 08:44:15;;;;;;;;;;;;;;;;;;5071063;28;20058;-72
2022/04/19 08:46:46;;;;;;;5.38;1.30;;;;;;;;;;5070568;28;19920;-73
2022/04/19 08:49:18;;;;;;;5.10;0.95;;;;;;;;;;5087916;28;20044;-72
2022/04/19 08:51:48;;;;;;;10.88;1.52;;;;;;;;;;5088724;28;20058;-72
2022/04/19 08:59:55;;;;;;;5.18;1.48;;;;;;;;;;5088486;28;20046;-72
2022/04/19 09:02:26;;;;;;;4.47;1.52;;;;;;;;;;5088744;28;20522;-73
2022/04/19 09:05:14;;;;;;;12.00;2.00;;;;;;;;;;5071035;28;20047;-74
2022/04/19 09:07:47;;;;;;;9.43;1.58;;;;;;;;;;5088278;28;20052;-75
2022/04/19 09:10:25;;;;;;;7.28;1.77;;;;;;;;;;5088473;28;20040;-72
2022/04/19 09:13:09;;;;;;;6.90;1.45;;;;;;;;;;5088506;28;20062;-73
2022/04/19 09:15:46;;;;;;;4.55;1.23;;;;;;;;;;5088123;28;20411;-73
2022/04/19 09:18:29;;;;;;;7.75;1.90;;;;;;;;;;5087549;28;20522;-73
2022/04/19 09:21:02;;;;;;;9.40;1.52;;;;;;;;;;5088171;28;20488;-78
2022/04/19 09:23:35;;;;;;;7.20;1.90;;;;;;;;;;5087627;28;20529;-73
2022/04/19 09:26:08;;;;;;;5.60;1.30;;;;;;;;;;5087380;28;20074;-73
2022/04/19 09:28:38;;;;;;;7.00;1.65;;;;;;;;;;5087456;28;20048;-73
2022/04/19 09:31:13;;;;;;;4.88;1.55;;;;;;;;;;5088583;28;20048;-73
2022/04/19 09:33:57;;;;;;;7.18;1.35;;;;;;;;;;5069868;28;20040;-73
2022/04/19 09:36:27;;;;;;;9.55;1.70;;;;;;;;;;5087844;28;20040;-73
2022/04/19 09:38:57;;;;;;;9.65;1.45;;;;;;;;;;5087690;28;20048;-73
2022/04/19 09:41:32;;;;;;;8.45;1.80;;;;;;;;;;5087839;28;20071;-74
2022/04/19 09:44:12;;;;;;;4.05;1.30;;;;;;;;;;5087457;28;20619;-73
2022/04/19 09:47:12;;;;;;;11.98;1.63;;;;;;;;;;5086843;28;20040;-73
2022/04/19 09:49:50;;;;;;;13.05;2.38;;;;;;;;;;5087495;28;20055;-78
2022/04/19 09:52:24;;;;;;;11.60;1.90;;;;;;;;;;5087466;28;20040;-74
2022/04/19 09:55:06;;;;;;;7.72;2.17;;;;;;;;;;5088255;28;20047;-73
2022/04/19 09:57:40;;;;;;;13.50;2.80;;;;;;;;;;5087664;28;20052;-75
2022/04/19 10:00:13;;;;;;;26.33;2.92;;;;;;;;;;5087296;28;20055;-73
2022/04/19 10:08:24;;;;;;;12.63;1.70;;;;;;;;;;5087351;28;20047;-76
2022/04/19 10:10:57;;;;;;;7.90;2.00;;;;;;;;;;5087473;28;20043;-73
2022/04/19 10:13:28;;;;;;;9.32;1.90;;;;;;;;;;5087198;28;20044;-73
2022/04/19 10:15:58;;;;;;;5.25;1.83;;;;;;;;;;5086889;28;20059;-74
2022/04/19 10:18:28;;;;;;;7.75;2.30;;;;;;;;;;5087277;28;20056;-73
2022/04/19 10:21:02;;;;;;;2.47;1.60;;;;;;;;;;5087128;28;20059;-73
2022/04/19 10:23:40;;;;;;;9.73;2.38;;;;;;;;;;5086610;28;20040;-73
2022/04/19 10:26:18;;;;;;;12.50;1.60;;;;;;;;;;5086454;28;20047;-74
2022/04/19 10:28:53;;;;;;;5.60;1.58;;;;;;;;;;5086422;28;20059;-73
2022/04/19 10:31:31;;;;;;;6.75;1.27;;;;;;;;;;5067797;28;20051;-73
2022/04/19 10:34:05;;;;;;;11.77;1.92;;;;;;;;;;5086629;28;20623;-74
2022/04/19 10:36:35;;;;;;;19.42;2.33;;;;;;;;;;5087054;28;20048;-74
2022/04/19 10:39:15;;;;;;;11.23;2.88;;;;;;;;;;5086644;28;20048;-73
2022/04/19 10:41:52;;;;;;;15.40;2.80;;;;;;;;;;5086867;28;20415;-76
2022/04/19 10:44:34;;;;;;;8.93;3.00;;;;;;;;;;5087018;28;20051;-74
2022/04/19 10:47:11;;;;;;;10.30;2.80;;;;;;;;;;5086209;28;20159;-73
2022/04/19 10:50:01;;;;;;;7.07;2.20;;;;;;;;;;5086437;28;20861;-73
2022/04/19 10:52:39;;;;;;;12.18;2.35;;;;;;;;;;5086568;28;20040;-73
2022/04/19 10:55:22;;;;;;;6.22;1.92;;;;;;;;;;5091499;28;20048;-74
2022/04/19 11:00:41;;;;;;;25.50;3.25;;;;;;;;;;5099990;28;20521;-72
2022/04/19 11:03:33;;;;;;;13.07;3.30;;;;;;;;;;5070670;28;20040;-76
2022/04/19 11:06:09;;;;;;;23.67;2.38;;;;;;;;;;5091134;28;20040;-73
2022/04/19 11:08:39;;;;;;;20.42;3.47;;;;;;;;;;5086335;28;20052;-73
2022/04/19 11:11:20;;;;;;;8.27;2.00;;;;;;;;;;5097789;28;20601;-71
2022/04/19 11:14:37;;;;;;;5.95;1.90;;;;;;;;;;5105207;28;20467;-72
2022/04/19 11:17:21;;;;;;;15.80;2.10;;;;;;;;;;5098844;28;20055;-72
2022/04/19 11:20:14;;;;;;;40.72;9.40;;;;;;;;;;5097231;28;20058;-74
2022/04/19 11:22:51;;;;;;;8.43;1.90;;;;;;;;;;5098053;28;20048;-74
2022/04/19 11:25:39;;;;;;;9.13;2.28;;;;;;;;;;5094920;28;20047;-78
2022/04/19 11:28:12;;;;;;;13.55;2.55;;;;;;;;;;5104263;28;20058;-74
2022/04/19 11:31:03;;;;;;;6.75;1.63;;;;;;;;;;5105293;28;20066;-74
2022/04/19 11:33:35;;;;;;;;;;;;;;;;;;5106174;28;20044;-74
2022/04/19 11:36:11;;;;;;;9.82;1.60;;;;;;;;;;5105684;28;19928;-74
2022/04/19 11:38:45;;;;;;;8.52;2.10;;;;;;;;;;5105429;28;20040;-74
2022/04/19 11:46:52;;;;;;;7.55;2.50;;;;;;;;;;5110144;28;20351;-74
2022/04/19 11:49:30;;;;;;;9.60;2.80;;;;;;;;;;5109484;28;20039;-74
2022/04/19 11:52:13;;;;;;;12.88;3.38;;;;;;;;;;5092359;28;20502;-77
2022/04/19 11:54:43;;;;;;;11.13;3.67;;;;;;;;;;5109685;28;20358;-75
2022/04/19 11:57:13;;;;;;;15.80;3.50;;;;;;;;;;5091595;28;20066;-74
2022/04/19 11:59:43;;;;;;;11.13;2.22;;;;;;;;;;5109440;28;20051;-74
2022/04/19 12:02:18;;;;;;;27.65;7.25;;;;;;;;;;5109335;28;20043;-74
2022/04/19 12:04:54;;;;;;;7.45;1.98;;;;;;;;;;5110349;28;20039;-74
2022/04/19 12:07:25;;;;;;;6.45;2.08;;;;;;;;;;5110468;28;20040;-74
2022/04/19 12:10:01;;;;;;;10.55;2.83;;;;;;;;;;5109327;28;20055;-74
2022/04/19 12:12:33;;;;;;;6.03;2.22;;;;;;;;;;5109291;28;20046;-74
2022/04/19 12:15:08;;;;;;;6.63;1.33;;;;;;;;;;5108495;28;20051;-74
2022/04/19 12:17:47;;;;;;;8.30;1.98;;;;;;;;;;5109245;28;20051;-74
2022/04/19 12:20:17;;;;;;;6.10;2.00;;;;;;;;;;5109659;28;20078;-75
2022/04/19 12:22:50;;;;;;;5.03;1.42;;;;;;;;;;5108053;28;20090;-74
2022/04/19 12:25:24;;;;;;;10.77;3.70;;;;;;;;;;5090012;28;20055;-75
2022/04/19 12:27:55;;;;;;;11.32;1.77;;;;;;;;;;5108206;28;20054;-74
2022/04/19 12:30:29;;;;;;;10.25;1.80;;;;;;;;;;5108930;28;20410;-76
2022/04/19 12:33:02;;;;;;;5.35;1.38;;;;;;;;;;5109238;28;20039;-75
2022/04/19 12:35:34;;;;;;;2.88;1.10;;;;;;;;;;5108495;28;20521;-75
2022/04/19 12:38:17;;;;;;;8.45;1.48;;;;;;;;;;5109352;28;20044;-75
2022/04/19 12:40:49;;;;;;;11.77;3.92;;;;;;;;;;5108665;28;20054;-76
2022/04/19 12:43:20;;;;;;;11.30;1.35;;;;;;;;;;5108841;28;20035;-74
2022/04/19 12:45:51;;;;;;;4.78;1.23;;;;;;;;;;5108866;28;20054;-74
2022/04/19 12:48:23;;;;;;;13.77;2.35;;;;;;;;;;5108871;28;20044;-75
2022/04/19 12:51:01;;;;;;;4.25;1.40;;;;;;;;;;5090564;28;20510;-75
2022/04/19 12:53:40;;;;;;;4.35;1.33;;;;;;;;;;5108628;28;20048;-75
2022/04/19 12:56:11;;;;;;;4.68;1.50;;;;;;;;;;5108182;28;20066;-75
2022/04/19 12:58:45;;;;;;;12.77;3.75;;;;;;;;;;5108672;28;20529;-75
2022/04/19 13:01:16;;;;;;;24.73;7.07;;;;;;;;;;5108977;28;20469;-79
2022/04/19 13:03:46;;;;;;;15.33;4.03;;;;;;;;;;5108828;28;20047;-75
2022/04/19 13:14:40;;;;;;;9.02;1.92;;;;;;;;;;5108838;28;20048;-75
2022/04/19 13:17:19;;;;;;;4.18;1.20;;;;;;;;;;5108675;28;20042;-75
2022/04/19 13:19:51;;;;;;;9.65;1.60;;;;;;;;;;5108467;28;20047;-75
2022/04/19 13:22:21;;;;;;;5.05;1.75;;;;;;;;;;5108207;28;20039;-75
2022/04/19 13:24:52;;;;;;;9.43;1.30;;;;;;;;;;5108718;28;20070;-77
2022/04/19 13:27:21;;;;;;;3.93;1.20;;;;;;;;;;5108330;28;20054;-73
2022/04/19 13:29:52;;;;;;;5.67;1.37;;;;;;;;;;5090248;28;20042;-75
2022/04/19 13:32:22;;;;;;;6.60;1.60;;;;;;;;;;5108594;28;20063;-76
2022/04/19 13:34:51;;;;;;;6.25;1.73;;;;;;;;;;5089428;28;20059;-75
2022/04/19 13:38:23;;;;;;;7.47;1.27;;;;;;;;;;5108552;28;20056;-78
2022/04/19 13:40:11;;;;;;;7.47;1.60;;;;;;;;;;5107744;28;20056;-77
2022/04/19 13:42:41;;;;;;;9.87;1.47;;;;;;;;;;5108078;28;20760;-73
2022/04/19 13:45:11;;;;;;;14.32;6.50;;;;;;;;;;5107918;28;20055;-73
2022/04/19 13:47:41;;;;;;;7.03;2.00;;;;;;;;;;5107440;28;20052;-75
2022/04/19 13:50:11;;;;;;;7.70;1.77;;;;;;;;;;5107824;28;20062;-74
2022/04/19 13:52:41;;;;;;;6.78;2.30;;;;;;;;;;5107366;28;20514;-74
2022/04/19 13:55:15;;;;;;;9.43;1.95;;;;;;;;;;5107773;28;20055;-74
2022/04/19 13:57:47;;;;;;;7.55;1.80;;;;;;;;;;5107608;28;20056;-74
2022/04/19 14:00:17;;;;;;;4.07;1.40;;;;;;;;;;5107750;28;20059;-74
2022/04/19 14:02:47;;;;;;;6.93;1.65;;;;;;;;;;5107415;28;20043;-73
2022/04/19 14:05:17;;;;;;;6.57;1.52;;;;;;;;;;5106657;28;20054;-77
2022/04/19 14:07:47;;;;;;;4.55;1.75;;;;;;;;;;5107174;28;20494;-74
2022/04/19 14:10:17;;;;;;;4.07;1.50;;;;;;;;;;5107565;28;20043;-74
2022/04/19 14:12:47;;;;;;;5.77;1.50;;;;;;;;;;5107224;28;20043;-74
2022/04/19 14:15:17;;;;;;;7.50;1.30;;;;;;;;;;5107151;28;20050;-73
2022/04/19 14:17:47;;;;;;;3.45;1.27;;;;;;;;;;5107434;28;20044;-74
2022/04/19 14:20:17;;;;;;;13.13;1.60;;;;;;;;;;5106890;28;20139;-74
2022/04/19 14:22:46;;;;;;;5.53;1.57;;;;;;;;;;5107170;28;20062;-74
2022/04/19 14:25:16;;;;;;;8.90;1.50;;;;;;;;;;5107155;28;20066;-74
2022/04/19 14:27:48;;;;;;;3.95;1.27;;;;;;;;;;5107200;28;20070;-74
2022/04/19 14:33:22;;;;;;;6.43;1.23;;;;;;;;;;5106841;28;20039;-74
2022/04/19 14:35:53;;;;;;;6.00;1.30;;;;;;;;;;5106707;28;20059;-77
2022/04/19 14:38:22;;;;;;;;;;;;;;;;;;5107395;28;20047;-74
2022/04/19 14:40:52;;;;;;;4.40;1.48;;;;;;;;;;5107102;28;19927;-74
2022/04/19 14:43:22;;;;;;;5.57;1.30;;;;;;;;;;5106927;28;20055;-76
2022/04/19 14:45:51;;;;;;;8.47;2.03;;;;;;;;;;5088096;28;20059;-74
2022/04/19 14:48:21;;;;;;;8.30;1.70;;;;;;;;;;5107057;28;20070;-74
2022/04/19 14:53:40;;;;;;;6.38;1.63;;;;;;;;;;5104135;28;20437;-74
2022/04/19 14:56:10;;;;;;;7.10;1.48;;;;;;;;;;5103239;28;20413;-74
2022/04/19 14:58:40;;;;;;;6.40;1.47;;;;;;;;;;5102760;28;20074;-74
2022/04/19 15:01:10;;;;;;;6.80;1.43;;;;;;;;;;5103551;28;20067;-74
2022/04/19 15:03:39;;;;;;;8.32;1.40;;;;;;;;;;5105575;28;20506;-74
2022/04/19 15:06:09;;;;;;;7.87;1.50;;;;;;;;;;5071557;28;20074;-75
2022/04/19 15:08:39;;;;;;;6.53;1.10;;;;;;;;;;5106563;28;20043;-74
2022/04/19 15:11:09;;;;;;;4.43;1.00;;;;;;;;;;5106334;28;20044;-77
2022/04/19 15:13:39;;;;;;;3.97;1.40;;;;;;;;;;5106128;28;20047;-74
2022/04/19 15:16:08;;;;;;;5.67;1.67;;;;;;;;;;5106493;28;20414;-74
2022/04/19 15:18:41;;;;;;;9.23;2.50;;;;;;;;;;5111175;28;20300;-75
2022/04/19 15:21:12;;;;;;;6.95;1.35;;;;;;;;;;5110794;28;20056;-74
2022/04/19 15:23:42;;;;;;;4.70;1.57;;;;;;;;;;5110494;28;20486;-74
2022/04/19 15:26:12;;;;;;;8.52;1.60;;;;;;;;;;5110544;28;20077;-74
2022/04/19 15:28:42;;;;;;;11.43;1.77;;;;;;;;;;5110530;28;20043;-74
2022/04/19 15:31:16;;;;;;;5.00;1.50;;;;;;;;;;5110750;28;20047;-77
2022/04/19 15:33:47;;;;;;;5.95;1.35;;;;;;;;;;5110277;28;20048;-75
2022/04/19 15:36:18;;;;;;;9.07;1.27;;;;;;;;;;5110190;28;20044;-75
2022/04/19 15:38:47;;;;;;;7.90;1.50;;;;;;;;;;5110535;28;20044;-75
2022/04/19 15:41:17;;;;;;;6.45;1.40;;;;;;;;;;5109765;28;20051;-75
2022/04/19 15:43:47;;;;;;;5.13;1.20;;;;;;;;;;5109758;28;20039;-74
2022/04/19 15:46:17;;;;;;;5.50;1.27;;;;;;;;;;5110761;28;20795;-74
2022/04/19 15:48:47;;;;;;;8.43;1.30;;;;;;;;;;5110819;28;20491;-75
2022/04/19 15:51:19;;;;;;;10.07;1.38;;;;;;;;;;5109743;28;20039;-75
2022/04/19 15:53:49;;;;;;;3.13;1.00;;;;;;;;;;5108722;28;20514;-75
2022/04/19 15:56:19;;;;;;;5.80;1.58;;;;;;;;;;5109148;28;20430;-76
2022/04/19 15:58:49;;;;;;;6.85;1.15;;;;;;;;;;5108780;28;20058;-74
2022/04/19 16:01:19;;;;;;;11.02;1.52;;;;;;;;;;5109537;28;20422;-75
2022/04/19 16:03:49;;;;;;;7.90;1.20;;;;;;;;;;5109281;28;20050;-75
2022/04/19 16:06:19;;;;;;;17.85;1.58;;;;;;;;;;5109772;28;20040;-75
2022/04/19 16:08:48;;;;;;;3.42;0.80;;;;;;;;;;5110177;28;20047;-76
2022/04/19 16:11:18;;;;;;;4.37;1.13;;;;;;;;;;5110405;28;20039;-75